createdAt,value
2022-10-31T00:01:26.283Z,96750.66
2022-10-31T00:03:55.197Z,96755.00
2022-10-31T00:06:24.754Z,96753.31
2022-10-31T00:08:55.530Z,96756.88
2022-10-31T00:11:24.647Z,96762.16
2022-10-31T00:13:54.654Z,96760.25
2022-10-31T00:16:24.956Z,96759.56
2022-10-31T00:18:54.513Z,96764.84
2022-10-31T00:21:23.580Z,96760.09
2022-10-31T00:23:52.081Z,96758.91
2022-10-31T00:26:20.892Z,96761.31
2022-10-31T00:28:49.533Z,96763.94
2022-10-31T00:31:19.586Z,96756.31
2022-10-31T00:33:48.168Z,96764.28
2022-10-31T00:36:18.651Z,96759.06
2022-10-31T00:38:48.476Z,96761.13
2022-10-31T00:41:18.417Z,96763.72
2022-10-31T00:43:46.942Z,96762.81
2022-10-31T00:46:15.722Z,96758.13
2022-10-31T00:48:45.450Z,96755.47
2022-10-31T00:51:13.865Z,96761.66
2022-10-31T00:53:42.190Z,96755.84
2022-10-31T00:56:10.558Z,96759.03
2022-10-31T00:58:38.949Z,96758.56
2022-10-31T01:01:07.554Z,96753.81
2022-10-31T01:03:36.480Z,96757.81
2022-10-31T01:06:08.378Z,96764.09
2022-10-31T01:08:37.513Z,96749.91
2022-10-31T01:11:09.292Z,96747.41
2022-10-31T01:13:37.687Z,96752.91
2022-10-31T01:16:08.172Z,96743.28
2022-10-31T01:18:36.820Z,96748.00
2022-10-31T01:21:08.612Z,96750.78
2022-10-31T01:23:37.648Z,96750.75
2022-10-31T01:26:09.408Z,96748.81
2022-10-31T01:28:38.905Z,96749.56
2022-10-31T01:31:09.449Z,96746.38
2022-10-31T01:33:38.905Z,96750.78
2022-10-31T01:36:17.485Z,96740.41
2022-10-31T01:38:46.328Z,96739.59
2022-10-31T01:41:17.352Z,96741.69
2022-10-31T01:43:47.873Z,96738.97
2022-10-31T01:46:19.589Z,96739.22
2022-10-31T01:48:48.725Z,96739.56
2022-10-31T01:51:21.962Z,96730.25
2022-10-31T01:53:53.360Z,96733.84
2022-10-31T01:56:22.354Z,96738.16
2022-10-31T01:58:51.125Z,96735.03
2022-10-31T02:01:20.336Z,96729.88
2022-10-31T02:03:49.968Z,96730.44
2022-10-31T02:06:31.292Z,96720.16
2022-10-31T02:09:02.376Z,96719.88
2022-10-31T02:11:31.533Z,96720.38
2022-10-31T02:14:01.399Z,96720.28
2022-10-31T02:16:29.709Z,96716.50
2022-10-31T02:18:58.499Z,96723.88
2022-10-31T02:21:40.085Z,96724.13
2022-10-31T02:24:36.166Z,96725.91
2022-10-31T02:27:34.993Z,96721.78
2022-10-31T02:30:13.125Z,96722.47
2022-10-31T02:33:13.222Z,96726.66
2022-10-31T02:35:56.733Z,96720.03
2022-10-31T02:38:39.141Z,96719.72
2022-10-31T02:41:18.825Z,96714.56
2022-10-31T02:43:55.532Z,96723.19
2022-10-31T02:46:30.036Z,96729.47
2022-10-31T02:49:07.512Z,96728.94
2022-10-31T02:51:36.092Z,96723.94
2022-10-31T02:54:04.580Z,96724.28
2022-10-31T02:56:33.051Z,96726.94
2022-10-31T02:59:05.869Z,96724.13
2022-10-31T03:01:58.702Z,96727.25
2022-10-31T03:05:11.975Z,96732.75
2022-10-31T03:07:49.701Z,96723.84
2022-10-31T03:10:28.324Z,96725.75
2022-10-31T03:13:06.352Z,96732.41
2022-10-31T03:15:37.809Z,96716.81
2022-10-31T03:18:10.453Z,96728.56
2022-10-31T03:20:47.879Z,96728.03
2022-10-31T03:23:19.523Z,96730.19
2022-10-31T03:25:50.355Z,96732.47
2022-10-31T03:28:23.210Z,96740.97
2022-10-31T03:30:54.240Z,96741.81
2022-10-31T03:33:28.440Z,96743.00
2022-10-31T03:36:02.497Z,96743.31
2022-10-31T03:38:31.780Z,96742.50
2022-10-31T03:41:03.816Z,96747.97
2022-10-31T03:43:38.968Z,96742.41
2022-10-31T03:46:08.493Z,96739.09
2022-10-31T03:48:36.996Z,96736.84
2022-10-31T03:51:13.720Z,96738.19
2022-10-31T03:53:47.603Z,96739.69
2022-10-31T03:56:23.496Z,96744.50
2022-10-31T03:58:59.514Z,96739.22
2022-10-31T04:01:31.073Z,96741.59
2022-10-31T04:04:00.804Z,96733.94
2022-10-31T04:06:33.172Z,96738.91
2022-10-31T04:09:06.880Z,96729.44
2022-10-31T04:11:38.776Z,96733.22
2022-10-31T04:14:08.630Z,96729.25
2022-10-31T04:16:38.362Z,96732.38
2022-10-31T04:19:06.709Z,96736.63
2022-10-31T04:21:36.524Z,96733.81
2022-10-31T04:24:05.434Z,96739.63
2022-10-31T04:26:33.784Z,96743.41
2022-10-31T04:29:02.174Z,96735.41
2022-10-31T04:31:30.497Z,96736.59
2022-10-31T04:33:58.990Z,96740.63
2022-10-31T04:36:27.570Z,96736.47
2022-10-31T04:38:57.413Z,96736.34
2022-10-31T04:41:25.745Z,96738.88
2022-10-31T04:43:54.118Z,96736.28
2022-10-31T04:46:22.449Z,96739.59
2022-10-31T04:48:51.128Z,96736.47
2022-10-31T04:51:19.500Z,96737.78
2022-10-31T04:53:47.804Z,96736.63
2022-10-31T04:56:17.486Z,96739.97
2022-10-31T04:58:45.835Z,96732.34
2022-10-31T05:01:14.747Z,96738.28
2022-10-31T05:03:43.223Z,96740.28
2022-10-31T05:06:11.553Z,96737.31
2022-10-31T05:08:39.860Z,96735.31
2022-10-31T05:11:08.212Z,96728.38
2022-10-31T05:13:37.946Z,96734.66
2022-10-31T05:16:06.918Z,96733.16
2022-10-31T05:18:35.278Z,96737.97
2022-10-31T05:21:03.629Z,96737.63
2022-10-31T05:23:31.960Z,96741.97
2022-10-31T05:26:00.306Z,96730.19
2022-10-31T05:28:28.664Z,96741.28
2022-10-31T05:30:58.373Z,96728.03
2022-10-31T05:33:27.916Z,96731.53
2022-10-31T05:35:56.242Z,96733.00
2022-10-31T05:38:24.644Z,96739.97
2022-10-31T05:40:58.525Z,96735.97
2022-10-31T05:43:26.885Z,96735.28
2022-10-31T05:45:55.432Z,96740.25
2022-10-31T05:48:25.238Z,96727.66
2022-10-31T05:50:54.089Z,96734.63
2022-10-31T05:53:22.456Z,96733.16
2022-10-31T05:55:50.812Z,96730.66
2022-10-31T05:58:19.226Z,96734.13
2022-10-31T06:00:47.608Z,96735.47
2022-10-31T06:03:15.936Z,96738.28
2022-10-31T06:05:49.221Z,96738.47
2022-10-31T06:08:29.211Z,96732.81
2022-10-31T06:10:57.672Z,96736.28
2022-10-31T06:13:25.963Z,96738.13
2022-10-31T06:15:54.393Z,96743.28
2022-10-31T06:18:22.782Z,96738.63
2022-10-31T06:20:52.740Z,96740.59
2022-10-31T06:23:21.070Z,96744.41
2022-10-31T06:25:51.694Z,96741.22
2022-10-31T06:28:20.162Z,96741.72
2022-10-31T06:30:48.480Z,96742.84
2022-10-31T06:33:16.839Z,96750.28
2022-10-31T06:35:47.756Z,96742.44
2022-10-31T06:38:17.700Z,96737.63
2022-10-31T06:40:46.012Z,96736.78
2022-10-31T06:43:15.765Z,96750.44
2022-10-31T06:45:44.144Z,96743.00
2022-10-31T06:48:17.174Z,96749.66
2022-10-31T06:50:46.553Z,96745.34
2022-10-31T06:53:15.320Z,96756.13
2022-10-31T06:55:45.240Z,96749.31
2022-10-31T06:58:13.670Z,96751.13
2022-10-31T07:00:42.040Z,96753.41
2022-10-31T07:03:14.180Z,96751.69
2022-10-31T07:05:42.647Z,96755.94
2022-10-31T07:08:13.926Z,96749.28
2022-10-31T07:10:44.140Z,96753.28
2022-10-31T07:13:15.572Z,96753.72
2022-10-31T07:15:45.414Z,96752.84
2022-10-31T07:18:14.719Z,96747.75
2022-10-31T07:20:43.192Z,96756.84
2022-10-31T07:23:12.241Z,96758.81
2022-10-31T07:25:41.117Z,96756.91
2022-10-31T07:28:10.096Z,96751.75
2022-10-31T07:30:40.116Z,96756.19
2022-10-31T07:33:08.600Z,96757.59
2022-10-31T07:35:37.021Z,96749.06
2022-10-31T07:38:12.949Z,96758.06
2022-10-31T07:40:42.136Z,96743.97
2022-10-31T07:43:14.511Z,96745.38
2022-10-31T07:45:44.529Z,96739.00
2022-10-31T07:48:12.956Z,96743.19
2022-10-31T07:50:41.429Z,96739.63
2022-10-31T07:53:11.592Z,96737.25
2022-10-31T07:55:40.690Z,96729.56
2022-10-31T07:58:10.792Z,96740.09
2022-10-31T08:00:40.763Z,96727.06
2022-10-31T08:03:12.474Z,96730.66
2022-10-31T08:05:41.970Z,96726.25
2022-10-31T08:08:10.478Z,96720.38
2022-10-31T08:10:39.201Z,96726.78
2022-10-31T08:13:09.444Z,96727.06
2022-10-31T08:15:40.519Z,96726.16
2022-10-31T08:18:13.983Z,96723.53
2022-10-31T08:20:42.938Z,96721.97
2022-10-31T08:23:12.693Z,96723.25
2022-10-31T08:25:41.083Z,96718.81
2022-10-31T08:28:11.704Z,96718.69
2022-10-31T08:30:41.391Z,96717.13
2022-10-31T08:33:14.976Z,96709.84
2022-10-31T08:35:43.925Z,96709.72
2022-10-31T08:38:13.460Z,96710.38
2022-10-31T08:40:42.140Z,96704.31
2022-10-31T08:43:13.884Z,96700.88
2022-10-31T08:45:42.622Z,96700.94
2022-10-31T08:48:14.827Z,96698.34
2022-10-31T08:50:43.905Z,96701.25
2022-10-31T08:53:14.534Z,96691.84
2022-10-31T08:55:44.219Z,96685.94
2022-10-31T08:58:14.857Z,96685.97
2022-10-31T09:00:43.811Z,96689.88
2022-10-31T09:03:15.698Z,96687.47
2022-10-31T09:05:44.419Z,96690.38
2022-10-31T09:08:16.363Z,96684.25
2022-10-31T09:10:46.212Z,96679.81
2022-10-31T09:13:15.930Z,96678.16
2022-10-31T09:15:46.073Z,96676.53
2022-10-31T09:18:18.488Z,96672.88
2022-10-31T09:20:48.329Z,96674.56
2022-10-31T09:23:18.432Z,96668.03
2022-10-31T09:25:50.612Z,96677.75
2022-10-31T09:28:22.176Z,96661.72
2022-10-31T09:30:52.188Z,96669.81
2022-10-31T09:33:22.673Z,96664.69
2022-10-31T09:35:51.529Z,96658.53
2022-10-31T09:38:21.338Z,96657.53
2022-10-31T09:40:54.429Z,96657.34
2022-10-31T09:43:31.338Z,96655.50
2022-10-31T09:46:06.837Z,96654.69
2022-10-31T09:48:57.782Z,96650.19
2022-10-31T09:51:31.817Z,96656.16
2022-10-31T09:54:07.761Z,96651.44
2022-10-31T09:56:36.982Z,96647.50
2022-10-31T09:59:12.584Z,96645.03
2022-10-31T10:01:47.873Z,96632.50
2022-10-31T10:04:34.792Z,96636.22
2022-10-31T10:07:09.976Z,96627.56
2022-10-31T10:09:38.633Z,96629.81
2022-10-31T10:12:18.380Z,96636.78
2022-10-31T10:15:00.521Z,96625.84
2022-10-31T10:17:40.115Z,96625.41
2022-10-31T10:20:26.819Z,96619.19
2022-10-31T10:23:09.302Z,96620.81
2022-10-31T10:25:41.834Z,96615.84
2022-10-31T10:28:22.361Z,96609.19
2022-10-31T10:30:53.757Z,96613.28
2022-10-31T10:33:25.453Z,96608.69
2022-10-31T10:36:00.738Z,96604.31
2022-10-31T10:38:35.800Z,96594.53
2022-10-31T10:41:07.318Z,96591.16
2022-10-31T10:43:38.042Z,96594.75
2022-10-31T10:46:39.627Z,96584.00
2022-10-31T10:49:19.713Z,96580.84
2022-10-31T10:52:13.114Z,96583.94
2022-10-31T10:54:52.780Z,96581.19
2022-10-31T10:57:40.307Z,96570.22
2022-10-31T11:00:20.066Z,96578.66
2022-10-31T11:02:49.255Z,96569.00
2022-10-31T11:05:25.702Z,96574.94
2022-10-31T11:07:55.484Z,96571.81
2022-10-31T11:10:24.191Z,96563.97
2022-10-31T11:14:00.856Z,96563.63
2022-10-31T11:16:40.801Z,96554.34
2022-10-31T11:19:18.187Z,96544.50
2022-10-31T11:21:53.625Z,96545.97
2022-10-31T11:24:28.413Z,96549.31
2022-10-31T11:27:13.742Z,96545.81
2022-10-31T11:29:42.092Z,96543.13
2022-10-31T11:32:20.813Z,96543.56
2022-10-31T11:34:52.485Z,96536.56
2022-10-31T11:37:23.994Z,96530.38
2022-10-31T11:39:55.753Z,96531.19
2022-10-31T11:42:27.181Z,96527.47
2022-10-31T11:44:57.494Z,96524.19
2022-10-31T11:47:29.875Z,96526.66
2022-10-31T11:49:59.772Z,96515.94
2022-10-31T11:52:30.660Z,96518.38
2022-10-31T11:55:03.905Z,96507.63
2022-10-31T11:57:35.026Z,96515.47
2022-10-31T12:00:06.188Z,96513.00
2022-10-31T12:02:34.857Z,96507.03
2022-10-31T12:05:10.303Z,96507.28
2022-10-31T12:07:38.685Z,96507.28
2022-10-31T12:10:13.839Z,96494.47
2022-10-31T12:13:00.067Z,96496.53
2022-10-31T12:15:34.522Z,96492.81
2022-10-31T12:18:26.946Z,96497.38
2022-10-31T12:21:05.693Z,96484.75
2022-10-31T12:23:47.219Z,96486.63
2022-10-31T12:26:24.823Z,96483.47
2022-10-31T12:29:14.853Z,96478.13
2022-10-31T12:31:58.133Z,96477.91
2022-10-31T12:34:55.364Z,96473.34
2022-10-31T12:37:42.009Z,96472.31
2022-10-31T12:40:37.120Z,96473.72
2022-10-31T12:43:25.385Z,96478.06
2022-10-31T12:45:56.873Z,96465.47
2022-10-31T12:48:57.337Z,96477.84
2022-10-31T12:51:35.994Z,96468.97
2022-10-31T12:54:21.967Z,96468.97
2022-10-31T12:57:01.805Z,96470.03
2022-10-31T12:59:37.755Z,96462.56
2022-10-31T13:02:17.851Z,96451.63
2022-10-31T13:04:51.828Z,96450.34
2022-10-31T13:07:25.367Z,96452.81
2022-10-31T13:10:00.154Z,96450.13
2022-10-31T13:12:33.366Z,96451.16
2022-10-31T13:15:17.233Z,96452.44
2022-10-31T13:17:50.042Z,96442.97
2022-10-31T13:20:25.564Z,96443.41
2022-10-31T13:22:58.320Z,96447.78
2022-10-31T13:25:30.051Z,96446.59
2022-10-31T13:28:02.972Z,96442.03
2022-10-31T13:30:38.481Z,96437.28
2022-10-31T13:33:13.715Z,96432.50
2022-10-31T13:35:50.048Z,96443.25
2022-10-31T13:38:25.521Z,96437.66
2022-10-31T13:40:59.665Z,96436.16
2022-10-31T13:43:40.008Z,96425.81
2022-10-31T13:49:02.260Z,96432.09
2022-10-31T13:51:32.267Z,96426.63
2022-10-31T13:54:02.122Z,96425.53
2022-10-31T13:56:32.829Z,96420.94
2022-10-31T13:59:05.409Z,96420.03
2022-10-31T14:01:35.350Z,96407.94
2022-10-31T14:04:14.779Z,96407.50
2022-10-31T14:06:55.517Z,96408.28
2022-10-31T14:09:31.678Z,96407.38
2022-10-31T14:12:03.728Z,96406.19
2022-10-31T14:14:41.574Z,96393.44
2022-10-31T14:17:21.549Z,96406.78
2022-10-31T14:20:24.433Z,96396.97
2022-10-31T14:22:53.071Z,96396.25
2022-10-31T14:25:29.387Z,96391.72
2022-10-31T14:28:00.111Z,96391.34
2022-10-31T14:30:30.681Z,96389.38
2022-10-31T14:33:02.124Z,96383.44
2022-10-31T14:35:48.395Z,96379.00
2022-10-31T14:38:34.341Z,96375.63
2022-10-31T14:41:37.768Z,96366.53
2022-10-31T14:44:51.428Z,96366.97
2022-10-31T14:47:30.517Z,96363.72
2022-10-31T14:50:19.224Z,96354.38
2022-10-31T14:52:53.541Z,96350.44
2022-10-31T14:55:23.435Z,96356.13
2022-10-31T14:57:54.740Z,96350.09
2022-10-31T15:00:25.054Z,96352.41
2022-10-31T15:03:13.333Z,96353.59
2022-10-31T15:05:47.368Z,96348.56
2022-10-31T15:08:32.911Z,96346.19
2022-10-31T15:11:05.549Z,96343.22
2022-10-31T15:13:33.910Z,96350.47
2022-10-31T15:16:02.336Z,96341.53
2022-10-31T15:18:30.952Z,96332.44
2022-10-31T15:20:59.454Z,96335.91
2022-10-31T15:23:32.596Z,96332.13
2022-10-31T15:26:02.290Z,96332.22
2022-10-31T15:28:32.250Z,96332.66
2022-10-31T15:31:02.694Z,96332.53
2022-10-31T15:33:38.266Z,96336.38
2022-10-31T15:36:08.387Z,96331.88
2022-10-31T15:38:40.776Z,96329.25
2022-10-31T15:41:30.681Z,96336.59
2022-10-31T15:44:05.481Z,96330.13
2022-10-31T15:46:35.941Z,96332.25
2022-10-31T15:49:04.468Z,96314.00
2022-10-31T15:51:35.673Z,96319.69
2022-10-31T15:54:05.782Z,96316.50
2022-10-31T15:56:34.666Z,96321.69
2022-10-31T15:59:04.107Z,96322.00
2022-10-31T16:01:34.557Z,96319.97
2022-10-31T16:04:21.558Z,96312.22
2022-10-31T16:07:01.406Z,96317.84
2022-10-31T16:09:31.550Z,96314.97
2022-10-31T16:12:01.073Z,96311.13
2022-10-31T16:14:42.248Z,96317.34
2022-10-31T16:17:15.030Z,96323.13
2022-10-31T16:19:51.556Z,96314.16
2022-10-31T16:22:25.917Z,96320.59
2022-10-31T16:25:01.565Z,96318.56
2022-10-31T16:27:32.961Z,96324.19
2022-10-31T16:30:05.277Z,96316.66
2022-10-31T16:32:36.469Z,96307.03
2022-10-31T16:35:26.577Z,96307.69
2022-10-31T16:37:55.187Z,96316.56
2022-10-31T16:40:25.447Z,96312.47
2022-10-31T16:42:54.273Z,96308.97
2022-10-31T16:45:24.196Z,96307.31
2022-10-31T16:47:53.230Z,96303.84
2022-10-31T16:50:24.116Z,96298.09
2022-10-31T16:53:12.972Z,96300.59
2022-10-31T16:55:47.685Z,96309.44
2022-10-31T16:58:20.982Z,96318.94
2022-10-31T17:00:49.548Z,96322.47
2022-10-31T17:03:17.861Z,96333.44
2022-10-31T17:05:46.403Z,96333.31
2022-10-31T17:08:14.784Z,96326.78
2022-10-31T17:10:45.760Z,96324.34
2022-10-31T17:13:19.172Z,96311.78
2022-10-31T17:15:52.320Z,96321.44
2022-10-31T17:18:26.928Z,96323.34
2022-10-31T17:20:59.582Z,96326.84
2022-10-31T17:23:29.170Z,96326.66
2022-10-31T17:25:58.992Z,96333.25
2022-10-31T17:28:27.719Z,96322.34
2022-10-31T17:30:59.290Z,96329.34
2022-10-31T17:33:27.986Z,96334.09
2022-10-31T17:35:56.582Z,96324.22
2022-10-31T17:38:24.948Z,96325.69
2022-10-31T17:40:54.232Z,96324.03
2022-10-31T17:43:27.081Z,96325.06
2022-10-31T17:45:55.492Z,96317.47
2022-10-31T17:48:23.826Z,96324.06
2022-10-31T17:50:52.204Z,96334.28
2022-10-31T17:53:20.638Z,96332.41
2022-10-31T17:55:49.204Z,96320.63
2022-10-31T17:58:17.572Z,96328.25
2022-10-31T18:00:50.434Z,96329.53
2022-10-31T18:03:19.864Z,96317.03
2022-10-31T18:05:53.524Z,96315.81
2022-10-31T18:08:25.713Z,96311.28
2022-10-31T18:10:54.172Z,96313.34
2022-10-31T18:13:22.910Z,96321.06
2022-10-31T18:15:52.635Z,96319.00
2022-10-31T18:18:21.076Z,96316.03
2022-10-31T18:20:49.429Z,96308.63
2022-10-31T18:23:17.852Z,96315.81
2022-10-31T18:25:46.208Z,96318.09
2022-10-31T18:28:14.717Z,96315.25
2022-10-31T18:30:43.273Z,96317.47
2022-10-31T18:33:13.007Z,96320.13
2022-10-31T18:35:41.844Z,96318.91
2022-10-31T18:38:10.541Z,96318.94
2022-10-31T18:40:39.363Z,96326.53
2022-10-31T18:43:07.742Z,96321.19
2022-10-31T18:45:56.790Z,96312.38
2022-10-31T18:48:28.328Z,96314.38
2022-10-31T18:50:58.104Z,96315.00
2022-10-31T18:53:26.696Z,96305.31
2022-10-31T18:55:55.049Z,96303.66
2022-10-31T18:58:23.395Z,96304.44
2022-10-31T19:00:51.755Z,96299.88
2022-10-31T19:03:25.720Z,96304.38
2022-10-31T19:05:57.197Z,96302.25
2022-10-31T19:08:25.642Z,96307.00
2022-10-31T19:10:54.042Z,96304.91
2022-10-31T19:13:22.583Z,96309.00
2022-10-31T19:15:50.950Z,96306.72
2022-10-31T19:18:19.536Z,96308.78
2022-10-31T19:20:47.900Z,96299.19
2022-10-31T19:23:17.909Z,96296.94
2022-10-31T19:25:46.206Z,96300.94
2022-10-31T19:28:14.587Z,96305.50
2022-10-31T19:30:42.981Z,96308.25
2022-10-31T19:33:11.326Z,96299.38
2022-10-31T19:35:39.693Z,96305.47
2022-10-31T19:38:08.030Z,96309.25
2022-10-31T19:40:38.695Z,96308.16
2022-10-31T19:43:07.248Z,96313.13
2022-10-31T19:45:35.656Z,96311.13
2022-10-31T19:48:04.409Z,96321.28
2022-10-31T19:50:32.945Z,96309.19
2022-10-31T19:53:01.832Z,96309.38
2022-10-31T19:55:30.247Z,96307.34
2022-10-31T19:58:02.198Z,96301.94
2022-10-31T20:00:30.888Z,96310.50
2022-10-31T20:03:00.852Z,96297.81
2022-10-31T20:05:29.433Z,96308.53
2022-10-31T20:07:58.124Z,96304.84
2022-10-31T20:10:26.513Z,96306.84
2022-10-31T20:12:54.828Z,96309.69
2022-10-31T20:15:24.569Z,96305.47
2022-10-31T20:17:52.973Z,96319.59
2022-10-31T20:20:21.481Z,96313.84
2022-10-31T20:22:50.682Z,96315.81
2022-10-31T20:25:19.364Z,96317.09
2022-10-31T20:27:47.713Z,96312.59
2022-10-31T20:30:16.382Z,96313.84
2022-10-31T20:32:49.936Z,96313.44
2022-10-31T20:35:19.310Z,96319.88
2022-10-31T20:37:47.664Z,96325.09
2022-10-31T20:40:16.042Z,96315.06
2022-10-31T20:42:44.367Z,96316.25
2022-10-31T20:45:12.739Z,96306.44
2022-10-31T20:47:41.127Z,96320.88
2022-10-31T20:50:10.972Z,96313.97
2022-10-31T20:52:40.547Z,96328.94
2022-10-31T20:55:09.877Z,96323.94
2022-10-31T20:57:38.654Z,96333.03
2022-10-31T21:00:08.549Z,96329.84
2022-10-31T21:02:36.989Z,96326.28
2022-10-31T21:05:08.348Z,96334.69
2022-10-31T21:07:38.144Z,96332.13
2022-10-31T21:10:14.867Z,96319.78
2022-10-31T21:12:44.491Z,96332.13
2022-10-31T21:15:14.756Z,96327.47
2022-10-31T21:17:43.949Z,96329.03
2022-10-31T21:20:12.582Z,96331.06
2022-10-31T21:22:42.319Z,96325.75
2022-10-31T21:25:10.847Z,96321.53
2022-10-31T21:27:39.181Z,96331.03
2022-10-31T21:30:08.204Z,96326.38
2022-10-31T21:32:36.548Z,96328.81
2022-10-31T21:35:05.313Z,96329.75
2022-10-31T21:37:36.628Z,96336.00
2022-10-31T21:40:07.420Z,96333.59
2022-10-31T21:42:35.803Z,96337.47
2022-10-31T21:45:05.237Z,96336.44
2022-10-31T21:47:33.614Z,96336.84
2022-10-31T21:50:01.960Z,96337.09
2022-10-31T21:52:30.330Z,96332.50
2022-10-31T21:54:57.725Z,96338.44
2022-10-31T21:57:27.424Z,96325.38
2022-10-31T21:59:55.863Z,96327.47
2022-10-31T22:02:24.306Z,96324.91
2022-10-31T22:04:52.654Z,96326.81
2022-10-31T22:07:20.969Z,96317.66
2022-10-31T22:09:49.312Z,96326.25
2022-10-31T22:12:17.848Z,96320.59
2022-10-31T22:14:47.533Z,96325.66
2022-10-31T22:17:15.882Z,96324.63
2022-10-31T22:19:44.225Z,96319.69
2022-10-31T22:22:13.577Z,96323.06
2022-10-31T22:24:41.910Z,96320.97
2022-10-31T22:27:10.285Z,96323.16
2022-10-31T22:29:38.651Z,96315.47
2022-10-31T22:32:08.391Z,96310.53
2022-10-31T22:34:36.821Z,96314.19
2022-10-31T22:37:05.467Z,96311.88
2022-10-31T22:39:33.920Z,96314.97
2022-10-31T22:42:02.248Z,96316.41
2022-10-31T22:44:30.573Z,96309.75
2022-10-31T22:46:58.955Z,96305.03
2022-10-31T22:49:29.853Z,96308.91
2022-10-31T22:51:59.819Z,96312.88
2022-10-31T22:54:28.533Z,96316.09
2022-10-31T22:56:56.845Z,96319.13
2022-10-31T22:59:25.200Z,96312.63
2022-10-31T23:01:54.458Z,96316.00
2022-10-31T23:04:23.244Z,96315.72
2022-10-31T23:06:52.982Z,96307.97
2022-10-31T23:09:21.305Z,96312.78
2022-10-31T23:11:49.726Z,96310.16
2022-10-31T23:14:20.784Z,96304.84
2022-10-31T23:16:51.028Z,96315.56
2022-10-31T23:19:22.591Z,96310.06
2022-10-31T23:21:59.785Z,96305.34
2022-10-31T23:24:35.927Z,96317.94
2022-10-31T23:27:07.582Z,96304.94
2022-10-31T23:29:43.197Z,96316.25
2022-10-31T23:32:20.268Z,96314.28
2022-10-31T23:34:50.672Z,96310.84
2022-10-31T23:37:22.173Z,96316.16
2022-10-31T23:39:50.534Z,96316.50
2022-10-31T23:42:19.752Z,96306.34
2022-10-31T23:44:48.544Z,96314.94
2022-10-31T23:47:17.600Z,96311.63
2022-10-31T23:49:46.370Z,96304.25
2022-10-31T23:52:16.064Z,96312.97
2022-10-31T23:54:45.812Z,96308.47
2022-10-31T23:57:16.660Z,96305.28
2022-10-31T23:59:45.025Z,96309.25
